createdAt,value
2023-04-12T00:02:07.782Z,29.70
2023-04-12T00:04:37.476Z,30.58
2023-04-12T00:07:07.684Z,31.55
2023-04-12T00:09:39.306Z,29.67
2023-04-12T00:12:09.014Z,32.15
2023-04-12T00:14:38.904Z,30.73
2023-04-12T00:17:08.274Z,32.20
2023-04-12T00:19:37.897Z,32.05
2023-04-12T00:22:07.521Z,31.55
2023-04-12T00:24:36.975Z,30.80
2023-04-12T00:27:07.357Z,30.83
2023-04-12T00:29:38.260Z,30.88
2023-04-12T00:32:07.648Z,30.63
2023-04-12T00:34:37.173Z,29.77
2023-04-12T00:37:06.739Z,30.33
2023-04-12T00:39:36.008Z,29.30
2023-04-12T00:42:06.421Z,28.73
2023-04-12T00:44:36.666Z,28.45
2023-04-12T00:47:07.183Z,27.73
2023-04-12T00:49:37.180Z,28.65
2023-04-12T00:52:09.661Z,28.23
2023-04-12T00:54:39.980Z,28.52
2023-04-12T00:57:09.751Z,28.63
2023-04-12T00:59:38.932Z,30.35
2023-04-12T01:02:09.258Z,29.05
2023-04-12T01:04:39.112Z,28.48
2023-04-12T01:07:40.214Z,30.77
2023-04-12T01:10:20.680Z,29.50
2023-04-12T01:13:27.171Z,29.30
2023-04-12T01:16:21.961Z,28.90
2023-04-12T01:18:55.369Z,27.83
2023-04-12T01:21:52.033Z,28.73
2023-04-12T01:24:57.228Z,27.85
2023-04-12T01:27:57.496Z,29.08
2023-04-12T01:30:29.974Z,30.27
2023-04-12T01:33:03.386Z,29.45
2023-04-12T01:35:35.422Z,28.85
2023-04-12T01:38:07.080Z,29.53
2023-04-12T01:40:37.379Z,29.40
2023-04-12T01:43:14.830Z,28.40
2023-04-12T01:45:44.731Z,28.60
2023-04-12T01:48:15.091Z,28.13
2023-04-12T01:51:01.904Z,28.33
2023-04-12T01:53:53.396Z,27.45
2023-04-12T01:56:26.123Z,28.27
2023-04-12T01:58:58.370Z,28.77
2023-04-12T02:01:30.429Z,29.48
2023-04-12T02:04:02.143Z,28.92
2023-04-12T02:06:33.114Z,29.55
2023-04-12T02:09:05.160Z,30.58
2023-04-12T02:11:35.909Z,29.85
2023-04-12T02:14:05.317Z,27.58
2023-04-12T02:16:35.451Z,27.67
2023-04-12T02:19:10.164Z,28.23
2023-04-12T02:21:47.191Z,28.33
2023-04-12T02:24:17.343Z,27.73
2023-04-12T02:26:47.446Z,28.20
2023-04-12T02:29:17.670Z,29.33
2023-04-12T02:31:49.413Z,27.40
2023-04-12T02:34:19.119Z,28.77
2023-04-12T02:36:54.998Z,28.13
2023-04-12T02:39:24.462Z,28.08
2023-04-12T02:41:54.738Z,29.30
2023-04-12T02:44:24.212Z,30.50
2023-04-12T02:47:16.426Z,28.98
2023-04-12T02:49:49.208Z,29.60
2023-04-12T02:52:20.718Z,30.92
2023-04-12T02:55:02.566Z,31.17
2023-04-12T02:57:32.411Z,31.35
2023-04-12T03:00:02.693Z,31.23
2023-04-12T03:02:42.328Z,28.90
2023-04-12T03:05:18.682Z,29.42
2023-04-12T03:07:49.232Z,27.83
2023-04-12T03:10:22.479Z,28.02
2023-04-12T03:13:17.769Z,25.88
2023-04-12T03:15:54.061Z,27.63
2023-04-12T03:18:24.751Z,24.88
2023-04-12T03:20:55.182Z,24.45
2023-04-12T03:23:24.998Z,22.40
2023-04-12T03:26:09.820Z,23.15
2023-04-12T03:28:39.418Z,22.05
2023-04-12T03:31:10.116Z,23.75
2023-04-12T03:33:45.047Z,22.70
2023-04-12T03:36:40.632Z,23.27
2023-04-12T03:39:24.683Z,23.75
2023-04-12T03:41:55.921Z,23.92
2023-04-12T03:44:30.247Z,24.40
2023-04-12T03:47:02.327Z,24.45
2023-04-12T03:49:39.476Z,24.13
2023-04-12T03:52:14.353Z,24.30
2023-04-12T03:54:47.356Z,22.60
2023-04-12T03:57:24.695Z,22.13
2023-04-12T03:59:54.577Z,21.73
2023-04-12T04:02:28.921Z,20.83
2023-04-12T04:05:00.374Z,20.23
2023-04-12T04:07:29.933Z,19.13
2023-04-12T04:10:00.453Z,19.90
2023-04-12T04:12:35.422Z,17.58
2023-04-12T04:15:06.136Z,16.55
2023-04-12T04:17:35.847Z,14.05
2023-04-12T04:20:06.862Z,14.32
2023-04-12T04:22:39.390Z,11.60
2023-04-12T04:25:09.285Z,11.45
2023-04-12T04:27:45.964Z,11.60
2023-04-12T04:30:17.453Z,13.93
2023-04-12T04:32:49.712Z,14.98
2023-04-12T04:35:22.844Z,14.68
2023-04-12T04:38:06.880Z,13.18
2023-04-12T04:40:40.355Z,12.40
2023-04-12T04:43:15.071Z,10.20
2023-04-12T04:45:47.332Z,10.48
2023-04-12T04:48:17.699Z,10.68
2023-04-12T04:50:47.457Z,11.88
2023-04-12T04:53:21.362Z,11.23
2023-04-12T04:55:51.432Z,11.90
2023-04-12T04:58:21.073Z,9.68
2023-04-12T05:00:51.297Z,9.02
2023-04-12T05:03:21.126Z,9.07
2023-04-12T05:05:52.914Z,10.57
2023-04-12T05:08:23.554Z,9.98
2023-04-12T05:10:54.518Z,12.65
2023-04-12T05:13:27.177Z,11.38
2023-04-12T05:15:56.861Z,11.10
2023-04-12T05:18:26.066Z,11.15
2023-04-12T05:20:55.918Z,12.75
2023-04-12T05:23:26.110Z,13.85
2023-04-12T05:25:55.735Z,15.70
2023-04-12T05:28:27.026Z,12.77
2023-04-12T05:30:57.023Z,14.73
2023-04-12T05:33:35.942Z,13.82
2023-04-12T05:36:07.094Z,15.23
2023-04-12T05:38:36.912Z,15.82
2023-04-12T05:41:12.398Z,16.27
2023-04-12T05:43:42.825Z,16.02
2023-04-12T05:46:12.974Z,15.52
2023-04-12T05:48:45.125Z,15.45
2023-04-12T05:51:15.612Z,15.88
2023-04-12T05:53:47.401Z,16.67
2023-04-12T05:56:18.631Z,17.33
2023-04-12T05:58:49.409Z,16.65
2023-04-12T06:01:20.878Z,16.20
2023-04-12T06:03:51.438Z,15.65
2023-04-12T06:06:21.777Z,13.50
2023-04-12T06:08:51.302Z,13.75
2023-04-12T06:11:20.660Z,13.13
2023-04-12T06:13:50.249Z,13.20
2023-04-12T06:16:19.556Z,12.75
2023-04-12T06:18:49.596Z,12.65
2023-04-12T06:21:19.720Z,11.27
2023-04-12T06:23:49.062Z,10.95
2023-04-12T06:26:19.914Z,10.93
2023-04-12T06:28:50.052Z,9.63
2023-04-12T06:31:19.871Z,10.32
2023-04-12T06:33:51.359Z,10.48
2023-04-12T06:36:21.224Z,10.85
2023-04-12T06:38:52.476Z,10.18
2023-04-12T06:41:23.428Z,11.25
2023-04-12T06:44:01.908Z,11.77
2023-04-12T06:46:31.880Z,11.38
2023-04-12T06:49:01.276Z,10.95
2023-04-12T06:51:31.651Z,11.32
2023-04-12T06:54:00.801Z,10.25
2023-04-12T06:56:30.257Z,9.05
2023-04-12T06:59:00.518Z,9.38
2023-04-12T07:01:30.824Z,9.07
2023-04-12T07:04:00.396Z,8.98
2023-04-12T07:06:30.386Z,7.80
2023-04-12T07:09:00.088Z,6.57
2023-04-12T07:11:29.775Z,5.78
2023-04-12T07:14:01.599Z,6.13
2023-04-12T07:16:35.161Z,7.10
2023-04-12T07:19:04.705Z,6.05
2023-04-12T07:21:34.165Z,5.72
2023-04-12T07:24:04.959Z,5.47
2023-04-12T07:26:34.887Z,6.00
2023-04-12T07:29:04.709Z,5.85
2023-04-12T07:31:34.207Z,4.72
2023-04-12T07:34:03.926Z,5.22
2023-04-12T07:36:33.758Z,4.45
2023-04-12T07:39:03.223Z,5.88
2023-04-12T07:41:34.158Z,5.50
2023-04-12T07:44:03.603Z,4.93
2023-04-12T07:46:33.332Z,5.53
2023-04-12T07:49:03.540Z,4.72
2023-04-12T07:51:33.922Z,4.53
2023-04-12T07:54:03.381Z,5.85
2023-04-12T07:56:36.166Z,4.55
2023-04-12T07:59:05.757Z,4.60
2023-04-12T08:01:34.876Z,4.95
2023-04-12T08:04:04.532Z,4.85
2023-04-12T08:06:35.054Z,5.47
2023-04-12T08:09:04.674Z,4.57
2023-04-12T08:11:36.435Z,5.75
2023-04-12T08:14:06.034Z,4.75
2023-04-12T08:16:36.062Z,4.65
2023-04-12T08:19:06.510Z,4.80
2023-04-12T08:21:36.232Z,5.55
2023-04-12T08:24:06.342Z,5.05
2023-04-12T08:26:36.066Z,5.05
2023-04-12T08:29:05.486Z,5.43
2023-04-12T08:31:35.834Z,5.97
2023-04-12T08:34:05.251Z,5.35
2023-04-12T08:36:34.393Z,4.97
2023-04-12T08:39:04.665Z,5.40
2023-04-12T08:41:37.771Z,5.07
2023-04-12T08:44:08.998Z,4.95
2023-04-12T08:46:38.636Z,4.43
2023-04-12T08:49:08.175Z,5.45
2023-04-12T08:51:38.915Z,4.65
2023-04-12T08:54:09.100Z,5.57
2023-04-12T08:56:38.636Z,4.47
2023-04-12T08:59:08.122Z,5.00
2023-04-12T09:01:38.826Z,4.70
2023-04-12T09:04:09.025Z,5.25
2023-04-12T09:06:38.835Z,4.22
2023-04-12T09:09:08.344Z,4.72
2023-04-12T09:11:38.688Z,4.60
2023-04-12T09:14:28.446Z,4.47
2023-04-12T09:16:58.345Z,4.50
2023-04-12T09:19:36.908Z,4.50
2023-04-12T09:22:06.860Z,4.50
2023-04-12T09:24:52.799Z,4.70
2023-04-12T09:27:22.385Z,4.30
2023-04-12T09:29:55.659Z,4.65
2023-04-12T09:32:31.200Z,4.35
2023-04-12T09:35:03.748Z,4.50
2023-04-12T09:37:36.390Z,4.45
2023-04-12T09:40:08.996Z,4.18
2023-04-12T09:42:53.502Z,4.30
2023-04-12T09:45:26.495Z,4.55
2023-04-12T09:47:56.652Z,3.70
2023-04-12T09:50:29.876Z,4.38
2023-04-12T09:53:01.111Z,4.00
2023-04-12T09:55:35.689Z,4.35
2023-04-12T09:58:06.307Z,4.00
2023-04-12T10:00:37.923Z,4.47
2023-04-12T10:03:08.785Z,4.15
2023-04-12T10:05:41.639Z,4.82
2023-04-12T10:08:14.384Z,6.28
2023-04-12T10:10:47.923Z,4.28
2023-04-12T10:13:19.275Z,4.75
2023-04-12T10:15:52.414Z,4.85
2023-04-12T10:20:50.992Z,4.47
2023-04-12T10:23:22.357Z,4.10
2023-04-12T10:25:55.269Z,4.35
2023-04-12T10:28:25.070Z,4.10
2023-04-12T10:30:59.179Z,4.20
2023-04-12T10:33:31.759Z,4.88
2023-04-12T10:36:12.114Z,4.50
2023-04-12T10:39:11.124Z,4.18
2023-04-12T10:41:40.753Z,4.07
2023-04-12T10:44:27.870Z,3.70
2023-04-12T10:46:57.876Z,5.03
2023-04-12T10:49:28.236Z,4.72
2023-04-12T10:52:04.313Z,3.60
2023-04-12T10:54:38.813Z,4.18
2023-04-12T10:57:44.465Z,4.38
2023-04-12T11:00:15.685Z,6.13
2023-04-12T11:03:13.182Z,6.65
2023-04-12T11:06:20.052Z,6.13
2023-04-12T11:09:23.799Z,4.05
2023-04-12T11:12:19.916Z,4.25
2023-04-12T11:14:52.151Z,4.18
2023-04-12T11:17:28.074Z,5.13
2023-04-12T11:20:00.317Z,4.70
2023-04-12T11:22:32.926Z,4.15
2023-04-12T11:25:04.612Z,3.70
2023-04-12T11:27:35.527Z,4.43
2023-04-12T11:30:05.435Z,3.72
2023-04-12T11:32:42.440Z,4.13
2023-04-12T11:35:12.182Z,4.60
2023-04-12T11:37:41.474Z,4.40
2023-04-12T11:40:11.581Z,4.78
2023-04-12T11:42:42.363Z,4.03
2023-04-12T11:45:17.939Z,4.07
2023-04-12T11:47:48.603Z,4.88
2023-04-12T11:50:33.472Z,4.55
2023-04-12T11:53:15.637Z,4.40
2023-04-12T11:55:51.005Z,4.65
2023-04-12T11:58:25.215Z,4.00
2023-04-12T12:00:56.380Z,3.75
2023-04-12T12:03:27.113Z,4.00
2023-04-12T12:05:57.694Z,4.00
2023-04-12T12:08:27.779Z,4.47
2023-04-12T12:11:07.275Z,4.03
2023-04-12T12:13:56.553Z,3.90
2023-04-12T12:16:28.993Z,5.15
2023-04-12T12:18:59.104Z,3.92
2023-04-12T12:21:28.731Z,4.78
2023-04-12T12:23:59.706Z,4.10
2023-04-12T12:26:29.844Z,4.55
2023-04-12T12:29:03.030Z,4.45
2023-04-12T12:31:34.089Z,4.40
2023-04-12T12:34:06.745Z,4.68
2023-04-12T12:36:39.706Z,4.40
2023-04-12T12:39:14.162Z,4.88
2023-04-12T12:41:43.868Z,4.20
2023-04-12T12:44:13.365Z,4.55
2023-04-12T12:49:15.390Z,4.13
2023-04-12T12:51:45.530Z,4.97
2023-04-12T12:54:19.852Z,4.38
2023-04-12T12:56:54.990Z,4.80
2023-04-12T12:59:25.986Z,4.88
2023-04-12T13:01:55.454Z,5.03
2023-04-12T13:04:25.421Z,5.88
2023-04-12T13:06:54.814Z,4.63
2023-04-12T13:09:23.814Z,6.03
2023-04-12T13:11:54.051Z,5.07
2023-04-12T13:14:23.635Z,5.60
2023-04-12T13:16:53.132Z,5.13
2023-04-12T13:19:22.562Z,5.55
2023-04-12T13:21:53.290Z,5.25
2023-04-12T13:24:23.268Z,5.60
2023-04-12T13:26:52.956Z,5.20
2023-04-12T13:29:22.521Z,5.28
2023-04-12T13:31:52.392Z,5.78
2023-04-12T13:34:21.798Z,5.70
2023-04-12T13:36:51.929Z,6.05
2023-04-12T13:39:21.949Z,5.70
2023-04-12T13:41:52.002Z,6.28
2023-04-12T13:44:21.608Z,6.38
2023-04-12T13:46:51.131Z,7.28
2023-04-12T13:49:20.278Z,6.38
2023-04-12T13:51:49.650Z,6.25
2023-04-12T13:54:19.167Z,6.32
2023-04-12T13:56:48.751Z,6.30
2023-04-12T13:59:18.935Z,5.60
2023-04-12T14:01:48.419Z,5.63
2023-04-12T14:04:18.142Z,6.90
2023-04-12T14:06:47.762Z,6.18
2023-04-12T14:09:31.159Z,5.63
2023-04-12T14:12:02.564Z,5.57
2023-04-12T14:14:32.384Z,5.47
2023-04-12T14:17:02.970Z,5.35
2023-04-12T14:19:33.080Z,5.40
2023-04-12T14:22:03.562Z,5.43
2023-04-12T14:24:34.288Z,6.50
2023-04-12T14:27:05.372Z,5.45
2023-04-12T14:29:35.843Z,5.68
2023-04-12T14:32:05.377Z,5.45
2023-04-12T14:34:35.637Z,5.45
2023-04-12T14:37:05.123Z,7.57
2023-04-12T14:39:34.708Z,6.28
2023-04-12T14:42:04.892Z,6.35
2023-04-12T14:44:34.211Z,6.00
2023-04-12T14:47:03.757Z,6.03
2023-04-12T14:49:33.639Z,6.30
2023-04-12T14:52:04.202Z,6.28
2023-04-12T14:54:33.984Z,6.60
2023-04-12T14:57:05.426Z,5.88
2023-04-12T14:59:35.286Z,6.22
2023-04-12T15:02:05.622Z,6.30
2023-04-12T15:04:35.207Z,7.28
2023-04-12T15:07:05.577Z,6.40
2023-04-12T15:09:35.368Z,7.60
2023-04-12T15:12:05.431Z,6.10
2023-04-12T15:14:35.826Z,6.90
2023-04-12T15:17:05.388Z,6.35
2023-04-12T15:19:34.663Z,6.82
2023-04-12T15:22:04.614Z,6.80
2023-04-12T15:24:34.967Z,6.50
2023-04-12T15:27:06.331Z,6.50
2023-04-12T15:29:40.085Z,7.15
2023-04-12T15:32:10.153Z,7.20
2023-04-12T15:34:39.602Z,7.70
2023-04-12T15:37:09.303Z,6.85
2023-04-12T15:39:38.814Z,7.05
2023-04-12T15:42:09.494Z,8.38
2023-04-12T15:44:38.977Z,7.65
2023-04-12T15:47:11.705Z,6.47
2023-04-12T15:49:42.223Z,8.15
2023-04-12T15:52:11.745Z,7.15
2023-04-12T15:54:44.038Z,7.53
2023-04-12T15:57:13.593Z,8.07
2023-04-12T15:59:43.328Z,8.20
2023-04-12T16:02:16.509Z,4.35
2023-04-12T16:04:48.546Z,7.90
2023-04-12T16:07:20.045Z,8.85
2023-04-12T16:09:50.101Z,7.88
2023-04-12T16:12:20.184Z,7.80
2023-04-12T16:14:51.379Z,8.48
2023-04-12T16:17:22.079Z,8.65
2023-04-12T16:19:52.189Z,10.02
2023-04-12T16:22:21.711Z,9.40
2023-04-12T16:24:51.638Z,8.38
2023-04-12T16:27:23.493Z,7.75
2023-04-12T16:29:54.129Z,8.43
2023-04-12T16:32:23.798Z,8.25
2023-04-12T16:34:53.152Z,8.68
2023-04-12T16:37:23.248Z,8.30
2023-04-12T16:39:53.556Z,8.20
2023-04-12T16:42:25.232Z,9.40
2023-04-12T16:44:54.848Z,9.38
2023-04-12T16:47:25.681Z,9.00
2023-04-12T16:49:56.299Z,9.77
2023-04-12T16:52:26.494Z,9.40
2023-04-12T16:54:55.893Z,10.63
2023-04-12T16:57:26.135Z,9.68
2023-04-12T16:59:57.067Z,9.68
2023-04-12T17:02:27.095Z,10.25
2023-04-12T17:04:56.851Z,9.43
2023-04-12T17:07:26.673Z,9.82
2023-04-12T17:09:57.252Z,9.68
2023-04-12T17:12:26.547Z,9.43
2023-04-12T17:14:55.986Z,9.45
2023-04-12T17:17:25.487Z,9.45
2023-04-12T17:19:55.572Z,10.10
2023-04-12T17:22:24.892Z,9.63
2023-04-12T17:24:54.803Z,9.63
2023-04-12T17:27:24.367Z,9.68
2023-04-12T17:29:54.150Z,9.85
2023-04-12T17:32:23.938Z,9.98
2023-04-12T17:34:55.962Z,9.95
2023-04-12T17:37:26.512Z,10.40
2023-04-12T17:39:56.391Z,9.88
2023-04-12T17:42:27.494Z,10.18
2023-04-12T17:44:57.170Z,10.40
2023-04-12T17:47:27.412Z,9.73
2023-04-12T17:49:57.667Z,9.70
2023-04-12T17:52:27.341Z,10.15
2023-04-12T17:54:56.787Z,9.52
2023-04-12T17:57:29.052Z,11.25
2023-04-12T17:59:59.906Z,9.70
2023-04-12T18:02:30.328Z,10.93
2023-04-12T18:05:00.717Z,10.13
2023-04-12T18:07:31.733Z,11.48
2023-04-12T18:10:03.534Z,10.90
2023-04-12T18:12:33.345Z,10.63
2023-04-12T18:15:05.382Z,10.73
2023-04-12T18:17:34.720Z,9.82
2023-04-12T18:20:06.574Z,9.63
2023-04-12T18:22:36.250Z,9.52
2023-04-12T18:25:06.193Z,9.23
2023-04-12T18:27:35.752Z,9.18
2023-04-12T18:30:06.049Z,9.52
2023-04-12T18:32:36.009Z,9.63
2023-04-12T18:35:06.124Z,9.35
2023-04-12T18:37:35.777Z,8.93
2023-04-12T18:40:08.278Z,8.90
2023-04-12T18:42:38.044Z,8.98
2023-04-12T18:45:07.776Z,9.02
2023-04-12T18:47:40.262Z,9.55
2023-04-12T18:50:10.215Z,8.38
2023-04-12T18:52:40.049Z,8.77
2023-04-12T18:55:10.230Z,8.52
2023-04-12T18:57:39.878Z,8.55
2023-04-12T19:00:15.389Z,8.45
2023-04-12T19:02:46.065Z,8.75
2023-04-12T19:05:15.838Z,8.45
2023-04-12T19:07:45.799Z,8.88
2023-04-12T19:10:15.457Z,8.15
2023-04-12T19:12:45.937Z,9.10
2023-04-12T19:15:15.718Z,8.32
2023-04-12T19:17:45.894Z,9.05
2023-04-12T19:20:15.867Z,7.82
2023-04-12T19:22:45.941Z,8.70
2023-04-12T19:27:46.299Z,7.82
2023-04-12T19:30:18.192Z,7.60
2023-04-12T19:32:48.175Z,8.02
2023-04-12T19:35:17.495Z,8.93
2023-04-12T19:37:47.164Z,8.35
2023-04-12T19:40:16.888Z,8.70
2023-04-12T19:42:47.743Z,8.65
2023-04-12T19:45:17.714Z,9.68
2023-04-12T19:47:47.061Z,8.15
2023-04-12T19:50:18.237Z,8.52
2023-04-12T19:52:49.874Z,8.43
2023-04-12T19:55:22.568Z,7.60
2023-04-12T19:57:52.267Z,8.10
2023-04-12T20:00:24.002Z,9.27
2023-04-12T20:02:55.391Z,7.63
2023-04-12T20:05:25.492Z,7.32
2023-04-12T20:07:57.032Z,7.65
2023-04-12T20:10:26.376Z,8.35
2023-04-12T20:12:56.143Z,8.00
2023-04-12T20:15:25.763Z,8.02
2023-04-12T20:17:55.905Z,7.68
2023-04-12T20:20:25.467Z,7.45
2023-04-12T20:22:54.675Z,8.90
2023-04-12T20:25:24.591Z,8.43
2023-04-12T20:27:54.954Z,8.55
2023-04-12T20:30:25.398Z,8.45
2023-04-12T20:32:56.059Z,8.18
2023-04-12T20:35:25.559Z,9.15
2023-04-12T20:37:55.126Z,10.13
2023-04-12T20:40:28.279Z,9.13
2023-04-12T20:45:28.368Z,8.40
2023-04-12T20:47:57.770Z,7.93
2023-04-12T20:50:27.699Z,8.02
2023-04-12T20:52:57.406Z,7.03
2023-04-12T20:55:35.168Z,7.03
2023-04-12T20:58:05.834Z,6.90
2023-04-12T21:00:37.188Z,8.20
2023-04-12T21:03:07.115Z,7.70
2023-04-12T21:05:36.888Z,7.60
2023-04-12T21:08:08.674Z,8.20
2023-04-12T21:10:39.108Z,8.07
2023-04-12T21:13:08.576Z,8.52
2023-04-12T21:15:37.875Z,9.07
2023-04-12T21:18:08.207Z,8.80
2023-04-12T21:20:37.583Z,9.35
2023-04-12T21:23:08.047Z,9.57
2023-04-12T21:25:37.678Z,10.60
2023-04-12T21:28:08.227Z,11.20
2023-04-12T21:30:38.257Z,10.32
2023-04-12T21:33:07.596Z,11.95
2023-04-12T21:35:36.763Z,11.52
2023-04-12T21:38:06.108Z,11.70
2023-04-12T21:40:38.362Z,10.82
2023-04-12T21:43:09.143Z,11.48
2023-04-12T21:45:38.612Z,11.85
2023-04-12T21:48:07.912Z,11.80
2023-04-12T21:50:38.787Z,11.38
2023-04-12T21:53:08.474Z,10.98
2023-04-12T21:55:37.630Z,10.45
2023-04-12T21:58:07.734Z,10.85
2023-04-12T22:00:38.030Z,10.82
2023-04-12T22:03:07.644Z,10.50
2023-04-12T22:05:37.624Z,11.98
2023-04-12T22:08:08.765Z,12.88
2023-04-12T22:10:38.966Z,15.50
2023-04-12T22:13:11.309Z,18.30
2023-04-12T22:15:41.744Z,18.50
2023-04-12T22:18:13.467Z,18.38
2023-04-12T22:20:43.439Z,20.60
2023-04-12T22:23:12.822Z,22.38
2023-04-12T22:25:42.667Z,21.33
2023-04-12T22:28:13.271Z,22.75
2023-04-12T22:30:42.784Z,21.80
2023-04-12T22:33:14.674Z,24.48
2023-04-12T22:35:44.559Z,25.27
2023-04-12T22:38:15.805Z,26.48
2023-04-12T22:40:45.286Z,26.48
2023-04-12T22:43:19.457Z,28.05
2023-04-12T22:45:50.271Z,30.17
2023-04-12T22:48:21.287Z,31.08
2023-04-12T22:50:51.091Z,30.88
2023-04-12T22:53:20.442Z,32.83
2023-04-12T22:55:49.954Z,31.60
2023-04-12T22:58:19.404Z,32.45
2023-04-12T23:00:52.276Z,32.92
2023-04-12T23:03:22.593Z,32.78
2023-04-12T23:05:52.293Z,31.67
2023-04-12T23:08:22.248Z,32.38
2023-04-12T23:10:51.669Z,33.42
2023-04-12T23:13:21.374Z,33.72
2023-04-12T23:15:51.328Z,35.72
2023-04-12T23:18:20.677Z,35.00
2023-04-12T23:20:52.493Z,33.63
2023-04-12T23:23:24.635Z,34.40
2023-04-12T23:25:54.623Z,33.38
2023-04-12T23:28:27.626Z,34.25
2023-04-12T23:30:59.217Z,33.05
2023-04-12T23:33:29.386Z,34.13
2023-04-12T23:35:59.999Z,33.13
2023-04-12T23:38:39.720Z,33.50
2023-04-12T23:41:11.513Z,33.03
2023-04-12T23:43:41.800Z,32.50
2023-04-12T23:46:12.680Z,33.20
2023-04-12T23:48:42.645Z,33.53
2023-04-12T23:51:11.922Z,33.53
2023-04-12T23:53:41.742Z,32.70
2023-04-12T23:56:11.227Z,35.20
2023-04-12T23:58:40.523Z,33.28
